Terminal Aerodrome Forecast
Issued by NWS

Home | Current Version | Previous Version | Text Only | Print | Product List | Glossary On
Versions: 1 2 3 4 5 6 7 8 9 10 11 12 13 14 15 16 17 18 19 20 21 22 23 24 25 26 27 28 29 30 31 32
622
FTUS43 KDLH 240959 AAB
TAFHYR
TAF AMD
KHYR 240959Z 2410/2506 00000KT 5SM -SN BR SCT006 OVC015
      TEMPO 2410/2412 4SM -SN BR BKN006 OVC016
     FM241200 00000KT 5SM BR SCT006 OVC015
     FM241500 VRB03KT P6SM OVC013
     FM242200 VRB03KT P6SM VCSH OVC015
     FM250200 05004KT 5SM -SN BR OVC008=

USA.gov is the U.S. government's official web portal to all federal, state and local government web resources and services.